Time;durP1;ratioP1;P1;durP2;ratioP2;P2;SDS_P1;SDS_P2;PMS_P1;PMS_P2;Temp;Humidity;BMP_temperature;BMP_pressure;BME280_temperature;BME280_humidity;BME280_pressure;Samples;Min_cycle;Max_cycle;Signal;HPM_P1;HPM_P2
2023/03/25 00:00:06;;;;;;;;;;;;;;;;;;2211585;67;1880;-22
2023/03/25 00:02:36;;;;;;;;;;;;;;;;;;2211426;67;1397;-22
2023/03/25 00:05:09;;;;;;;;;;;;;;;;;;2212990;67;1990;-22
2023/03/25 00:07:40;;;;;;;;;;;;;;;;;;2212290;66;1092;-22
2023/03/25 00:10:12;;;;;;;;;;;;;;;;;;2212714;66;1029;-23
2023/03/25 00:12:42;;;;;;;;;;;;;;;;;;2209545;67;1296;-22
2023/03/25 00:15:12;;;;;;;;;;;;;;;;;;2212902;67;2004;-22
2023/03/25 00:17:43;;;;;;;;;;;;;;;;;;2213032;67;1237;-22
2023/03/25 00:20:13;;;;;;;;;;;;;;;;;;2212902;66;1183;-22
2023/03/25 00:22:44;;;;;;;;;;;;;;;;;;2213600;66;1256;-22
2023/03/25 00:25:17;;;;;;;;;;;;;;;;;;2213414;67;1248;-22
2023/03/25 00:27:49;;;;;;;;;;;;;;;;;;2212836;67;1593;-22
2023/03/25 00:30:20;;;;;;;;;;;;;;;;;;2212882;67;1520;-21
2023/03/25 00:32:51;;;;;;;;;;;;;;;;;;2212322;59;1672;-21
2023/03/25 00:35:22;;;;;;;;;;;;;;;;;;2213359;67;2079;-21
2023/03/25 00:37:58;;;;;;;;;;;;;;;;;;2213486;59;1693;-23
2023/03/25 00:40:33;;;;;;;;;;;;;;;;;;2212728;58;1049;-21
2023/03/25 00:43:04;;;;;;;;;;;;;;;;;;2213745;59;1204;-23
2023/03/25 00:45:35;;;;;;;;;;;;;;;;;;2212398;67;1447;-23
2023/03/25 00:48:05;;;;;;;;;;;;;;;;;;2213031;66;1465;-23
2023/03/25 00:50:35;;;;;;;;;;;;;;;;;;2213192;59;1462;-23
2023/03/25 00:53:07;;;;;;;;;;;;;;;;;;2213472;66;1735;-23
2023/03/25 00:55:37;;;;;;;;;;;;;;;;;;2212898;67;1938;-23
2023/03/25 00:58:07;;;;;;;;;;;;;;;;;;2213643;67;1370;-24
2023/03/25 01:00:37;;;;;;;;;;;;;;;;;;2211642;67;1280;-25
2023/03/25 01:03:08;;;;;;;;;;;;;;;;;;2213310;67;1388;-25
2023/03/25 01:05:40;;;;;;;;;;;;;;;;;;2212963;67;1121;-25
2023/03/25 01:08:13;;;;;;;;;;;;;;;;;;2213375;66;1070;-25
2023/03/25 01:10:43;;;;;;;;;;;;;;;;;;2212467;67;1093;-25
2023/03/25 01:13:14;;;;;;;;;;;;;;;;;;2213181;67;1995;-26
2023/03/25 01:15:44;;;;;;;;;;;;;;;;;;2213251;66;1127;-26
2023/03/25 01:18:14;;;;;;;;;;;;;;;;;;2213269;67;1863;-26
2023/03/25 01:20:44;;;;;;;;;;;;;;;;;;2213433;66;1519;-25
2023/03/25 01:23:15;;;;;;;;;;;;;;;;;;2213085;67;1218;-26
2023/03/25 01:25:45;;;;;;;;;;;;;;;;;;2213007;67;1640;-26
2023/03/25 01:28:15;;;;;;;;;;;;;;;;;;2213313;67;1359;-26
2023/03/25 01:30:45;;;;;;;;;;;;;;;;;;2212584;67;1119;-26
2023/03/25 01:33:16;;;;;;;;;;;;;;;;;;2213262;67;1925;-25
2023/03/25 01:35:46;;;;;;;;;;;;;;;;;;2212807;67;1241;-26
2023/03/25 01:38:16;;;;;;;;;;;;;;;;;;2212218;67;1307;-25
2023/03/25 01:40:46;;;;;;;;;;;;;;;;;;2212354;67;1142;-25
2023/03/25 01:43:17;;;;;;;;;;;;;;;;;;2212807;59;1558;-25
2023/03/25 01:45:47;;;;;;;;;;;;;;;;;;2212867;66;1230;-25
2023/03/25 01:48:24;;;;;;;;;;;;;;;;;;2213131;67;1279;-25
2023/03/25 01:50:56;;;;;;;;;;;;;;;;;;2212777;67;1936;-26
2023/03/25 01:53:28;;;;;;;;;;;;;;;;;;2212559;66;1931;-25
2023/03/25 01:56:01;;;;;;;;;;;;;;;;;;2212541;67;1265;-25
2023/03/25 01:58:32;;;;;;;;;;;;;;;;;;2212558;67;1358;-25
2023/03/25 02:01:02;;;;;;;;;;;;;;;;;;2213100;67;1479;-25
2023/03/25 02:03:36;;;;;;;;;;;;;;;;;;2212554;66;1521;-25
2023/03/25 02:06:13;;;;;;;;;;;;;;;;;;2212860;67;1501;-25
2023/03/25 02:08:43;;;;;;;;;;;;;;;;;;2212322;59;1141;-25
2023/03/25 02:11:14;;;;;;;;;;;;;;;;;;2212279;67;1242;-25
2023/03/25 02:13:44;;;;;;;;;;;;;;;;;;2212614;66;2009;-25
2023/03/25 02:16:33;;;;;;;;;;;;;;;;;;2212246;67;1137;-25
2023/03/25 02:19:03;;;;;;;;;;;;;;;;;;2212506;67;1095;-25
2023/03/25 02:21:53;;;;;;;;;;;;;;;;;;2212633;67;1971;-25
2023/03/25 02:24:41;;;;;;;;;;;;;;;;;;2212547;67;1322;-25
2023/03/25 02:27:16;;;;;;;;;;;;;;;;;;2208858;59;1827;-25
2023/03/25 02:30:05;;;;;;;;;;;;;;;;;;2212386;67;1147;-25
2023/03/25 02:32:36;;;;;;;;;;;;;;;;;;2212047;67;1395;-25
2023/03/25 02:35:25;;;;;;;;;;;;;;;;;;2212096;67;1945;-25
2023/03/25 02:37:57;;;;;;;;;;;;;;;;;;2212213;59;1291;-25
2023/03/25 02:40:35;;;;;;;;;;;;;;;;;;2212512;67;1341;-25
2023/03/25 02:43:14;;;;;;;;;;;;;;;;;;2212505;59;1366;-25
2023/03/25 02:45:47;;;;;;;;;;;;;;;;;;2212087;67;1106;-24
2023/03/25 02:48:24;;;;;;;;;;;;;;;;;;2212318;67;1360;-24
2023/03/25 02:50:56;;;;;;;;;;;;;;;;;;2212335;67;1311;-24
2023/03/25 02:53:29;;;;;;;;;;;;;;;;;;2212715;67;1990;-24
2023/03/25 02:56:02;;;;;;;;;;;;;;;;;;2212360;67;1109;-24
2023/03/25 02:58:32;;;;;;;;;;;;;;;;;;2212175;67;1143;-24
2023/03/25 03:01:03;;;;;;;;;;;;;;;;;;2212618;67;1230;-24
2023/03/25 03:03:33;;;;;;;;;;;;;;;;;;2212226;66;1741;-24
2023/03/25 03:06:04;;;;;;;;;;;;;;;;;;2212167;59;1699;-24
2023/03/25 03:08:49;;;;;;;;;;;;;;;;;;2212058;67;1187;-24
2023/03/25 03:11:32;;;;;;;;;;;;;;;;;;2212283;67;1268;-24
2023/03/25 03:14:22;;;;;;;;;;;;;;;;;;2212388;59;1988;-24
2023/03/25 03:17:02;;;;;;;;;;;;;;;;;;2212948;67;1765;-24
2023/03/25 03:19:33;;;;;;;;;;;;;;;;;;2214705;66;1295;-24
2023/03/25 03:22:17;;;;;;;;;;;;;;;;;;2212660;67;1262;-24
2023/03/25 03:25:00;;;;;;;;;;;;;;;;;;2211904;67;1247;-24
2023/03/25 03:27:37;;;;;;;;;;;;;;;;;;2212314;67;1681;-24
2023/03/25 03:30:10;;;;;;;;;;;;;;;;;;2212474;67;1094;-24
2023/03/25 03:32:52;;;;;;;;;;;;;;;;;;2212325;67;1695;-24
2023/03/25 03:35:32;;;;;;;;;;;;;;;;;;2212692;67;2457;-24
2023/03/25 03:38:08;;;;;;;;;;;;;;;;;;2211033;67;2055;-24
2023/03/25 03:40:40;;;;;;;;;;;;;;;;;;2212354;67;1459;-24
2023/03/25 03:43:16;;;;;;;;;;;;;;;;;;2212398;59;1183;-24
2023/03/25 03:45:48;;;;;;;;;;;;;;;;;;2212526;67;1280;-24
2023/03/25 03:48:22;;;;;;;;;;;;;;;;;;2212304;67;1367;-24
2023/03/25 03:50:55;;;;;;;;;;;;;;;;;;2211926;67;1242;-24
2023/03/25 03:53:28;;;;;;;;;;;;;;;;;;2211399;67;1945;-25
2023/03/25 03:56:02;;;;;;;;;;;;;;;;;;2212466;66;1294;-25
2023/03/25 03:58:42;;;;;;;;;;;;;;;;;;2211639;66;1015;-25
2023/03/25 04:01:29;;;;;;;;;;;;;;;;;;2211897;59;1288;-25
2023/03/25 04:03:59;;;;;;;;;;;;;;;;;;2212437;67;1782;-25
2023/03/25 04:06:37;;;;;;;;;;;;;;;;;;2213074;67;1222;-25
2023/03/25 04:09:17;;;;;;;;;;;;;;;;;;2212586;67;1076;-25
2023/03/25 04:11:52;;;;;;;;;;;;;;;;;;2212046;67;1451;-25
2023/03/25 04:14:22;;;;;;;;;;;;;;;;;;2212549;67;1985;-25
2023/03/25 04:16:53;;;;;;;;;;;;;;;;;;2212774;67;1811;-24
2023/03/25 04:19:24;;;;;;;;;;;;;;;;;;2212546;66;1326;-25
2023/03/25 04:21:55;;;;;;;;;;;;;;;;;;2212332;67;1342;-24
2023/03/25 04:24:25;;;;;;;;;;;;;;;;;;2212702;67;1136;-24
2023/03/25 04:27:02;;;;;;;;;;;;;;;;;;2212794;67;1250;-24
2023/03/25 04:29:32;;;;;;;;;;;;;;;;;;2212497;58;1127;-24
2023/03/25 04:32:02;;;;;;;;;;;;;;;;;;2212677;67;1302;-24
2023/03/25 04:34:33;;;;;;;;;;;;;;;;;;2212147;67;1990;-24
2023/03/25 04:37:03;;;;;;;;;;;;;;;;;;2208964;67;1274;-24
2023/03/25 04:39:33;;;;;;;;;;;;;;;;;;2212676;67;1563;-24
2023/03/25 04:42:04;;;;;;;;;;;;;;;;;;2212989;59;1546;-24
2023/03/25 04:44:37;;;;;;;;;;;;;;;;;;2211996;67;1327;-24
2023/03/25 04:47:12;;;;;;;;;;;;;;;;;;2212253;67;1289;-24
2023/03/25 04:49:43;;;;;;;;;;;;;;;;;;2212435;66;1291;-24
2023/03/25 04:52:15;;;;;;;;;;;;;;;;;;2212110;67;1921;-24
2023/03/25 04:54:45;;;;;;;;;;;;;;;;;;2212244;66;1953;-24
2023/03/25 04:57:16;;;;;;;;;;;;;;;;;;2212170;67;1298;-24
2023/03/25 04:59:46;;;;;;;;;;;;;;;;;;2211645;59;1325;-24
2023/03/25 05:02:17;;;;;;;;;;;;;;;;;;2212636;67;1619;-24
2023/03/25 05:04:47;;;;;;;;;;;;;;;;;;2212535;67;1101;-24
2023/03/25 05:07:17;;;;;;;;;;;;;;;;;;2212932;59;1211;-24
2023/03/25 05:09:47;;;;;;;;;;;;;;;;;;2212435;66;1679;-24
2023/03/25 05:12:21;;;;;;;;;;;;;;;;;;2213332;67;1227;-24
2023/03/25 05:14:51;;;;;;;;;;;;;;;;;;2212954;67;1947;-24
2023/03/25 05:17:22;;;;;;;;;;;;;;;;;;2212784;67;1114;-25
2023/03/25 05:19:53;;;;;;;;;;;;;;;;;;2214993;66;1801;-26
2023/03/25 05:22:24;;;;;;;;;;;;;;;;;;2212557;67;1411;-25
2023/03/25 05:24:55;;;;;;;;;;;;;;;;;;2212574;67;1551;-25
2023/03/25 05:27:27;;;;;;;;;;;;;;;;;;2213192;67;1602;-25
2023/03/25 05:29:57;;;;;;;;;;;;;;;;;;2212302;67;1633;-25
2023/03/25 05:32:34;;;;;;;;;;;;;;;;;;2211807;67;1580;-25
2023/03/25 05:35:04;;;;;;;;;;;;;;;;;;2212953;66;2003;-25
2023/03/25 05:37:36;;;;;;;;;;;;;;;;;;2212414;67;1219;-25
2023/03/25 05:40:07;;;;;;;;;;;;;;;;;;2212994;67;1681;-25
2023/03/25 05:42:37;;;;;;;;;;;;;;;;;;2211982;59;1283;-25
2023/03/25 05:45:09;;;;;;;;;;;;;;;;;;2212871;67;1229;-25
2023/03/25 05:47:40;;;;;;;;;;;;;;;;;;2212940;67;1773;-25
2023/03/25 05:50:10;;;;;;;;;;;;;;;;;;2212616;67;1087;-25
2023/03/25 05:52:40;;;;;;;;;;;;;;;;;;2211648;67;1249;-25
2023/03/25 05:55:13;;;;;;;;;;;;;;;;;;2212722;59;1935;-25
2023/03/25 05:57:43;;;;;;;;;;;;;;;;;;2212543;66;1131;-25
2023/03/25 06:00:15;;;;;;;;;;;;;;;;;;2213165;67;1254;-25
2023/03/25 06:02:45;;;;;;;;;;;;;;;;;;2212583;59;1438;-25
2023/03/25 06:05:16;;;;;;;;;;;;;;;;;;2209255;67;1591;-25
2023/03/25 06:07:46;;;;;;;;;;;;;;;;;;2212946;66;1221;-25
2023/03/25 06:10:16;;;;;;;;;;;;;;;;;;2212840;67;1257;-25
2023/03/25 06:12:47;;;;;;;;;;;;;;;;;;2212666;67;1386;-25
2023/03/25 06:15:19;;;;;;;;;;;;;;;;;;2212037;67;1928;-25
2023/03/25 06:17:50;;;;;;;;;;;;;;;;;;2212135;67;1373;-25
2023/03/25 06:20:20;;;;;;;;;;;;;;;;;;2212940;67;1117;-25
2023/03/25 06:22:50;;;;;;;;;;;;;;;;;;2212940;67;1218;-25
2023/03/25 06:25:20;;;;;;;;;;;;;;;;;;2212490;67;1414;-25
2023/03/25 06:27:51;;;;;;;;;;;;;;;;;;2212391;67;1196;-25
2023/03/25 06:30:21;;;;;;;;;;;;;;;;;;2212886;67;1051;-25
2023/03/25 06:32:54;;;;;;;;;;;;;;;;;;2213037;67;1330;-25
2023/03/25 06:35:27;;;;;;;;;;;;;;;;;;2212965;67;1935;-26
2023/03/25 06:37:58;;;;;;;;;;;;;;;;;;2211244;67;1377;-26
2023/03/25 06:40:28;;;;;;;;;;;;;;;;;;2212792;67;1338;-26
2023/03/25 06:42:58;;;;;;;;;;;;;;;;;;2212714;67;1669;-24
2023/03/25 06:45:28;;;;;;;;;;;;;;;;;;2212542;59;1687;-24
2023/03/25 06:47:59;;;;;;;;;;;;;;;;;;2212134;67;1483;-24
2023/03/25 06:50:30;;;;;;;;;;;;;;;;;;2212420;66;1204;-24
2023/03/25 06:53:02;;;;;;;;;;;;;;;;;;2212516;66;1306;-24
2023/03/25 06:55:32;;;;;;;;;;;;;;;;;;2212154;67;1988;-25
2023/03/25 06:58:02;;;;;;;;;;;;;;;;;;2212659;67;1262;-24
2023/03/25 07:00:33;;;;;;;;;;;;;;;;;;2212739;67;1686;-24
2023/03/25 07:03:03;;;;;;;;;;;;;;;;;;2215062;66;1592;-24
2023/03/25 07:05:33;;;;;;;;;;;;;;;;;;2211926;67;1155;-24
2023/03/25 07:08:03;;;;;;;;;;;;;;;;;;2212417;67;1118;-24
2023/03/25 07:10:34;;;;;;;;;;;;;;;;;;2212294;67;1640;-24
2023/03/25 07:13:04;;;;;;;;;;;;;;;;;;2212951;67;1293;-24
2023/03/25 07:15:34;;;;;;;;;;;;;;;;;;2212202;67;1928;-24
2023/03/25 07:18:04;;;;;;;;;;;;;;;;;;2212682;67;1842;-24
2023/03/25 07:20:38;;;;;;;;;;;;;;;;;;2212490;67;1117;-24
2023/03/25 07:23:08;;;;;;;;;;;;;;;;;;2212956;67;1323;-24
2023/03/25 07:25:38;;;;;;;;;;;;;;;;;;2211865;67;1689;-24
2023/03/25 07:28:08;;;;;;;;;;;;;;;;;;2212851;67;1145;-24
2023/03/25 07:30:39;;;;;;;;;;;;;;;;;;2212296;67;1498;-24
2023/03/25 07:33:09;;;;;;;;;;;;;;;;;;2212317;66;1441;-24
2023/03/25 07:35:40;;;;;;;;;;;;;;;;;;2211648;67;1932;-24
2023/03/25 07:38:10;;;;;;;;;;;;;;;;;;2212917;67;1233;-24
2023/03/25 07:40:40;;;;;;;;;;;;;;;;;;2211766;67;1776;-24
2023/03/25 07:43:10;;;;;;;;;;;;;;;;;;2212643;67;1687;-24
2023/03/25 07:45:40;;;;;;;;;;;;;;;;;;2212165;67;1262;-24
2023/03/25 07:48:13;;;;;;;;;;;;;;;;;;2212792;67;1179;-24
2023/03/25 07:50:44;;;;;;;;;;;;;;;;;;2212343;67;1117;-24
2023/03/25 07:53:18;;;;;;;;;;;;;;;;;;2212463;66;1177;-24
2023/03/25 07:55:51;;;;;;;;;;;;;;;;;;2212095;66;2003;-24
2023/03/25 07:58:21;;;;;;;;;;;;;;;;;;2212445;67;1210;-24
2023/03/25 08:00:55;;;;;;;;;;;;;;;;;;2212194;67;1270;-24
2023/03/25 08:03:26;;;;;;;;;;;;;;;;;;2212678;67;1108;-24
2023/03/25 08:05:59;;;;;;;;;;;;;;;;;;2212756;67;1115;-24
2023/03/25 08:08:29;;;;;;;;;;;;;;;;;;2212946;66;1188;-24
2023/03/25 08:11:00;;;;;;;;;;;;;;;;;;2212324;67;1226;-24
2023/03/25 08:13:31;;;;;;;;;;;;;;;;;;2213008;67;1357;-25
2023/03/25 08:16:02;;;;;;;;;;;;;;;;;;2208181;59;1467;-25
2023/03/25 08:18:33;;;;;;;;;;;;;;;;;;2212616;67;1053;-25
2023/03/25 08:21:03;;;;;;;;;;;;;;;;;;2212505;67;1531;-23
2023/03/25 08:23:35;;;;;;;;;;;;;;;;;;2212402;66;1562;-23
2023/03/25 08:26:06;;;;;;;;;;;;;;;;;;2212654;67;1464;-23
2023/03/25 08:28:36;;;;;;;;;;;;;;;;;;2212452;67;1092;-23
2023/03/25 08:31:07;;;;;;;;;;;;;;;;;;2212306;67;1131;-23
2023/03/25 08:33:39;;;;;;;;;;;;;;;;;;2212251;67;1927;-23
2023/03/25 08:36:13;;;;;;;;;;;;;;;;;;2212639;67;1461;-23
2023/03/25 08:38:43;;;;;;;;;;;;;;;;;;2212528;67;1332;-23
2023/03/25 08:41:13;;;;;;;;;;;;;;;;;;2213268;67;1317;-23
2023/03/25 08:43:44;;;;;;;;;;;;;;;;;;2211759;67;1044;-22
2023/03/25 08:46:14;;;;;;;;;;;;;;;;;;2213093;59;1288;-22
2023/03/25 08:48:44;;;;;;;;;;;;;;;;;;2212883;67;1888;-23
2023/03/25 08:51:14;;;;;;;;;;;;;;;;;;2212485;67;1661;-22
2023/03/25 08:53:45;;;;;;;;;;;;;;;;;;2212194;67;2000;-23
2023/03/25 08:56:18;;;;;;;;;;;;;;;;;;2212632;67;1318;-23
2023/03/25 08:58:48;;;;;;;;;;;;;;;;;;2212748;67;1106;-23
2023/03/25 09:01:20;;;;;;;;;;;;;;;;;;2213348;67;1682;-23
2023/03/25 09:03:51;;;;;;;;;;;;;;;;;;2212776;59;1222;-22
2023/03/25 09:06:21;;;;;;;;;;;;;;;;;;2213291;67;1124;-23
2023/03/25 09:08:54;;;;;;;;;;;;;;;;;;2212901;59;1399;-22
2023/03/25 09:11:25;;;;;;;;;;;;;;;;;;2213550;67;1318;-23
2023/03/25 09:13:55;;;;;;;;;;;;;;;;;;2213247;67;1939;-23
2023/03/25 09:16:25;;;;;;;;;;;;;;;;;;2213238;67;1307;-23
2023/03/25 09:18:55;;;;;;;;;;;;;;;;;;2211884;67;1147;-23
2023/03/25 09:21:26;;;;;;;;;;;;;;;;;;2213060;67;1219;-25
2023/03/25 09:23:56;;;;;;;;;;;;;;;;;;2213223;67;2190;-26
2023/03/25 09:26:26;;;;;;;;;;;;;;;;;;2213594;67;1642;-26
2023/03/25 09:28:59;;;;;;;;;;;;;;;;;;2212736;67;1656;-26
2023/03/25 09:31:29;;;;;;;;;;;;;;;;;;2212714;67;1902;-26
2023/03/25 09:34:00;;;;;;;;;;;;;;;;;;2212352;67;1955;-26
2023/03/25 09:36:30;;;;;;;;;;;;;;;;;;2212908;58;1147;-26
2023/03/25 09:39:01;;;;;;;;;;;;;;;;;;2213224;67;1819;-26
2023/03/25 09:41:39;;;;;;;;;;;;;;;;;;2212746;67;1240;-26
2023/03/25 09:44:17;;;;;;;;;;;;;;;;;;2212807;67;1686;-26
2023/03/25 09:46:48;;;;;;;;;;;;;;;;;;2212600;67;1204;-26
2023/03/25 09:49:24;;;;;;;;;;;;;;;;;;2212783;66;1360;-26
2023/03/25 09:51:55;;;;;;;;;;;;;;;;;;2212469;67;1673;-26
2023/03/25 09:54:30;;;;;;;;;;;;;;;;;;2213155;59;1937;-26
2023/03/25 09:57:05;;;;;;;;;;;;;;;;;;2212576;67;1224;-26
2023/03/25 09:59:40;;;;;;;;;;;;;;;;;;2212423;67;1216;-26
2023/03/25 10:02:29;;;;;;;;;;;;;;;;;;2212158;67;1662;-26
2023/03/25 10:05:18;;;;;;;;;;;;;;;;;;2212287;67;1097;-25
2023/03/25 10:08:14;;;;;;;;;;;;;;;;;;2212707;67;1295;-26
2023/03/25 10:10:44;;;;;;;;;;;;;;;;;;2213262;67;1226;-26
2023/03/25 10:13:17;;;;;;;;;;;;;;;;;;2212508;67;1215;-27
2023/03/25 10:15:47;;;;;;;;;;;;;;;;;;2213081;67;1922;-24
2023/03/25 10:18:27;;;;;;;;;;;;;;;;;;2215315;67;1674;-24
2023/03/25 10:21:03;;;;;;;;;;;;;;;;;;2214428;59;1249;-27
2023/03/25 10:23:40;;;;;;;;;;;;;;;;;;2214778;66;1154;-27
2023/03/25 10:26:33;;;;;;;;;;;;;;;;;;2214345;67;1199;-27
2023/03/25 10:29:05;;;;;;;;;;;;;;;;;;2211882;67;2019;-27
2023/03/25 10:31:38;;;;;;;;;;;;;;;;;;2212915;67;1220;-27
2023/03/25 10:34:14;;;;;;;;;;;;;;;;;;2212636;67;1992;-27
2023/03/25 10:36:48;;;;;;;;;;;;;;;;;;2212451;67;1814;-27
2023/03/25 10:39:19;;;;;;;;;;;;;;;;;;2212727;67;1074;-27
2023/03/25 10:41:55;;;;;;;;;;;;;;;;;;2212620;67;1683;-27
2023/03/25 10:44:26;;;;;;;;;;;;;;;;;;2213087;59;1703;-27
2023/03/25 10:47:03;;;;;;;;;;;;;;;;;;2212755;67;1272;-28
2023/03/25 10:49:35;;;;;;;;;;;;;;;;;;2211951;67;1251;-28
2023/03/25 10:52:06;;;;;;;;;;;;;;;;;;2212660;67;1401;-28
2023/03/25 10:54:40;;;;;;;;;;;;;;;;;;2211456;67;1937;-28
2023/03/25 10:57:14;;;;;;;;;;;;;;;;;;2213119;67;1700;-28
2023/03/25 10:59:55;;;;;;;;;;;;;;;;;;2211737;67;2846;-28
2023/03/25 11:02:28;;;;;;;;;;;;;;;;;;2211186;67;1336;-28
2023/03/25 11:05:00;;;;;;;;;;;;;;;;;;2211697;67;1333;-29
2023/03/25 11:07:35;;;;;;;;;;;;;;;;;;2212620;67;1440;-29
2023/03/25 11:10:09;;;;;;;;;;;;;;;;;;2212645;67;1399;-29
2023/03/25 11:12:47;;;;;;;;;;;;;;;;;;2212901;67;1231;-29
2023/03/25 11:15:19;;;;;;;;;;;;;;;;;;2212683;67;1996;-29
2023/03/25 11:18:01;;;;;;;;;;;;;;;;;;2212166;67;1585;-29
2023/03/25 11:20:36;;;;;;;;;;;;;;;;;;2212492;67;1381;-29
2023/03/25 11:23:21;;;;;;;;;;;;;;;;;;2211266;67;1257;-29
2023/03/25 11:25:53;;;;;;;;;;;;;;;;;;2212766;67;1166;-29
2023/03/25 11:28:50;;;;;;;;;;;;;;;;;;2213019;66;1652;-28
2023/03/25 11:31:22;;;;;;;;;;;;;;;;;;2212298;67;1478;-29
2023/03/25 11:34:10;;;;;;;;;;;;;;;;;;2212592;66;1929;-29
2023/03/25 11:36:51;;;;;;;;;;;;;;;;;;2212648;67;1849;-29
2023/03/25 11:39:21;;;;;;;;;;;;;;;;;;2213292;67;1617;-29
2023/03/25 11:41:52;;;;;;;;;;;;;;;;;;2213540;67;1257;-29
2023/03/25 11:44:22;;;;;;;;;;;;;;;;;;2213330;59;1781;-30
2023/03/25 11:46:55;;;;;;;;;;;;;;;;;;2212618;67;1337;-29
2023/03/25 11:49:28;;;;;;;;;;;;;;;;;;2212442;67;1529;-28
2023/03/25 11:52:00;;;;;;;;;;;;;;;;;;2212173;67;1317;-29
2023/03/25 11:54:31;;;;;;;;;;;;;;;;;;2212033;67;1916;-29
2023/03/25 11:57:04;;;;;;;;;;;;;;;;;;2211853;67;1679;-29
2023/03/25 11:59:36;;;;;;;;;;;;;;;;;;2212134;67;1076;-29
2023/03/25 12:02:27;;;;;;;;;;;;;;;;;;2211503;67;1300;-29
2023/03/25 12:05:02;;;;;;;;;;;;;;;;;;2212537;59;1675;-28
2023/03/25 12:07:43;;;;;;;;;;;;;;;;;;2214848;66;1629;-28
2023/03/25 12:10:19;;;;;;;;;;;;;;;;;;2211671;67;1580;-28
2023/03/25 12:12:52;;;;;;;;;;;;;;;;;;2212842;67;1235;-28
2023/03/25 12:15:36;;;;;;;;;;;;;;;;;;2213540;67;1982;-28
2023/03/25 12:18:31;;;;;;;;;;;;;;;;;;2212822;67;997;-28
2023/03/25 12:21:07;;;;;;;;;;;;;;;;;;2212790;67;1318;-28
2023/03/25 12:23:45;;;;;;;;;;;;;;;;;;2213679;67;1253;-28
2023/03/25 12:26:17;;;;;;;;;;;;;;;;;;2213563;67;1534;-28
2023/03/25 12:29:03;;;;;;;;;;;;;;;;;;2214033;67;1270;-28
2023/03/25 12:31:33;;;;;;;;;;;;;;;;;;2213580;67;1362;-28
2023/03/25 12:34:06;;;;;;;;;;;;;;;;;;2213718;59;1941;-28
2023/03/25 12:36:40;;;;;;;;;;;;;;;;;;2212727;67;1322;-28
2023/03/25 12:39:19;;;;;;;;;;;;;;;;;;2213958;67;1470;-28
2023/03/25 12:41:59;;;;;;;;;;;;;;;;;;2213977;67;1431;-27
2023/03/25 12:44:48;;;;;;;;;;;;;;;;;;2217188;59;1166;-24
2023/03/25 12:47:33;;;;;;;;;;;;;;;;;;2215301;67;1458;-24
2023/03/25 12:50:20;;;;;;;;;;;;;;;;;;2215946;59;1455;-24
2023/03/25 12:53:00;;;;;;;;;;;;;;;;;;2215263;67;1303;-24
2023/03/25 12:55:37;;;;;;;;;;;;;;;;;;2214341;67;1944;-24
2023/03/25 12:58:07;;;;;;;;;;;;;;;;;;2214096;67;1559;-24
2023/03/25 13:00:59;;;;;;;;;;;;;;;;;;2213481;67;1213;-24
2023/03/25 13:03:37;;;;;;;;;;;;;;;;;;2213878;59;1506;-24
2023/03/25 13:06:29;;;;;;;;;;;;;;;;;;2213452;67;1234;-24
2023/03/25 13:09:07;;;;;;;;;;;;;;;;;;2212790;67;1502;-24
2023/03/25 13:11:42;;;;;;;;;;;;;;;;;;2213236;66;1195;-24
2023/03/25 13:14:32;;;;;;;;;;;;;;;;;;2213641;67;1913;-24
2023/03/25 13:17:07;;;;;;;;;;;;;;;;;;2215309;66;1397;-24
2023/03/25 13:19:41;;;;;;;;;;;;;;;;;;2213204;67;1277;-24
2023/03/25 13:22:22;;;;;;;;;;;;;;;;;;2213556;67;1227;-24
2023/03/25 13:24:55;;;;;;;;;;;;;;;;;;2213060;66;1594;-23
2023/03/25 13:27:31;;;;;;;;;;;;;;;;;;2213491;67;1791;-23
2023/03/25 13:30:03;;;;;;;;;;;;;;;;;;2213662;67;1327;-23
2023/03/25 13:32:49;;;;;;;;;;;;;;;;;;2210180;67;1305;-23
2023/03/25 13:35:26;;;;;;;;;;;;;;;;;;2215790;66;1937;-23
2023/03/25 13:37:59;;;;;;;;;;;;;;;;;;2215653;66;1231;-23
2023/03/25 13:40:36;;;;;;;;;;;;;;;;;;2213017;67;1131;-23
2023/03/25 13:43:12;;;;;;;;;;;;;;;;;;2212412;67;1483;-23
2023/03/25 13:45:42;;;;;;;;;;;;;;;;;;2213343;59;1622;-23
2023/03/25 13:48:27;;;;;;;;;;;;;;;;;;2213521;67;1780;-23
2023/03/25 13:51:00;;;;;;;;;;;;;;;;;;2212995;67;1235;-23
2023/03/25 13:53:36;;;;;;;;;;;;;;;;;;2215800;66;1282;-23
2023/03/25 13:56:07;;;;;;;;;;;;;;;;;;2212832;67;1941;-23
2023/03/25 13:58:45;;;;;;;;;;;;;;;;;;2213081;60;1064;-23
2023/03/25 14:01:20;;;;;;;;;;;;;;;;;;2213053;67;1383;-23
2023/03/25 14:03:50;;;;;;;;;;;;;;;;;;2212986;67;1182;-23
2023/03/25 14:06:23;;;;;;;;;;;;;;;;;;2213028;59;1057;-23
2023/03/25 14:09:19;;;;;;;;;;;;;;;;;;2212315;67;1677;-23
2023/03/25 14:11:49;;;;;;;;;;;;;;;;;;2212697;67;1430;-23
2023/03/25 14:14:21;;;;;;;;;;;;;;;;;;2212587;59;1947;-23
2023/03/25 14:16:55;;;;;;;;;;;;;;;;;;2212092;67;2189;-23
2023/03/25 14:19:30;;;;;;;;;;;;;;;;;;2213567;59;1265;-23
2023/03/25 14:22:07;;;;;;;;;;;;;;;;;;2212921;66;1304;-23
2023/03/25 14:24:37;;;;;;;;;;;;;;;;;;2212812;66;1161;-23
2023/03/25 14:27:17;;;;;;;;;;;;;;;;;;2212579;67;1123;-23
2023/03/25 14:29:55;;;;;;;;;;;;;;;;;;2212317;66;1114;-23
2023/03/25 14:32:31;;;;;;;;;;;;;;;;;;2213252;67;1274;-23
2023/03/25 14:35:19;;;;;;;;;;;;;;;;;;2212008;67;1928;-23
2023/03/25 14:37:50;;;;;;;;;;;;;;;;;;2212889;67;1773;-23
2023/03/25 14:40:38;;;;;;;;;;;;;;;;;;2213200;67;1708;-23
2023/03/25 14:43:22;;;;;;;;;;;;;;;;;;2212636;67;1318;-23
2023/03/25 14:45:59;;;;;;;;;;;;;;;;;;2213190;59;1312;-23
2023/03/25 14:48:30;;;;;;;;;;;;;;;;;;2212577;66;1112;-23
2023/03/25 14:51:14;;;;;;;;;;;;;;;;;;2212612;67;1666;-23
2023/03/25 14:53:58;;;;;;;;;;;;;;;;;;2213081;62;1305;-23
2023/03/25 14:56:36;;;;;;;;;;;;;;;;;;2219870;66;1248;-19
2023/03/25 14:59:14;;;;;;;;;;;;;;;;;;2214013;66;1163;-21
2023/03/25 15:01:45;;;;;;;;;;;;;;;;;;2209765;59;1932;-19
2023/03/25 15:04:25;;;;;;;;;;;;;;;;;;2212156;67;1285;-20
2023/03/25 15:06:56;;;;;;;;;;;;;;;;;;2211915;67;1686;-21
2023/03/25 15:09:28;;;;;;;;;;;;;;;;;;2210720;59;1527;-20
2023/03/25 15:12:01;;;;;;;;;;;;;;;;;;2206579;59;1368;-20
2023/03/25 15:14:36;;;;;;;;;;;;;;;;;;2209628;67;1982;-20
2023/03/25 15:17:10;;;;;;;;;;;;;;;;;;2209568;67;1453;-20
2023/03/25 15:19:59;;;;;;;;;;;;;;;;;;2204528;67;1157;-20
2023/03/25 15:22:30;;;;;;;;;;;;;;;;;;2210044;67;1226;-20
2023/03/25 15:25:01;;;;;;;;;;;;;;;;;;2211037;67;1258;-19
2023/03/25 15:27:50;;;;;;;;;;;;;;;;;;2211384;67;1098;-20
2023/03/25 15:30:30;;;;;;;;;;;;;;;;;;2204606;67;1669;-21
2023/03/25 15:33:00;;;;;;;;;;;;;;;;;;2210517;66;1803;-20
2023/03/25 15:36:06;;;;;;;;;;;;;;;;;;2210816;67;1930;-20
2023/03/25 15:38:42;;;;;;;;;;;;;;;;;;2194923;67;2236;-20
2023/03/25 15:41:12;;;;;;;;;;;;;;;;;;2205933;67;1446;-20
2023/03/25 15:43:52;;;;;;;;;;;;;;;;;;2211013;67;1771;-22
2023/03/25 15:46:22;;;;;;;;;;;;;;;;;;2211636;67;1283;-22
2023/03/25 15:49:06;;;;;;;;;;;;;;;;;;2212350;67;1115;-21
2023/03/25 15:51:36;;;;;;;;;;;;;;;;;;2209971;67;1810;-21
2023/03/25 15:54:19;;;;;;;;;;;;;;;;;;2204514;66;1945;-21
2023/03/25 15:56:51;;;;;;;;;;;;;;;;;;2209651;67;1321;-21
2023/03/25 15:59:28;;;;;;;;;;;;;;;;;;2221435;66;1098;-21
2023/03/25 16:02:01;;;;;;;;;;;;;;;;;;2222015;66;1138;-21
2023/03/25 16:04:31;;;;;;;;;;;;;;;;;;2210500;67;1662;-21
2023/03/25 16:07:03;;;;;;;;;;;;;;;;;;2209373;67;1668;-20
2023/03/25 16:09:38;;;;;;;;;;;;;;;;;;2208292;67;1385;-21
2023/03/25 16:12:08;;;;;;;;;;;;;;;;;;2221162;66;1437;-21
2023/03/25 16:14:41;;;;;;;;;;;;;;;;;;2208510;59;1927;-21
2023/03/25 16:17:12;;;;;;;;;;;;;;;;;;2219947;66;1132;-20
2023/03/25 16:19:45;;;;;;;;;;;;;;;;;;2207708;67;1742;-21
2023/03/25 16:22:18;;;;;;;;;;;;;;;;;;2208853;67;1601;-21
2023/03/25 16:24:49;;;;;;;;;;;;;;;;;;2208678;67;1076;-21
2023/03/25 16:27:30;;;;;;;;;;;;;;;;;;2208456;67;1092;-20
2023/03/25 16:30:00;;;;;;;;;;;;;;;;;;2208523;67;1282;-21
2023/03/25 16:32:32;;;;;;;;;;;;;;;;;;2207309;67;1173;-20
2023/03/25 16:35:03;;;;;;;;;;;;;;;;;;2207373;67;1925;-20
2023/03/25 16:37:34;;;;;;;;;;;;;;;;;;2206568;67;1145;-20
2023/03/25 16:40:04;;;;;;;;;;;;;;;;;;2207013;67;1219;-20
2023/03/25 16:42:36;;;;;;;;;;;;;;;;;;2208441;67;1469;-20
2023/03/25 16:45:07;;;;;;;;;;;;;;;;;;2208385;67;1414;-21
2023/03/25 16:47:38;;;;;;;;;;;;;;;;;;2207633;67;1151;-20
2023/03/25 16:50:18;;;;;;;;;;;;;;;;;;2207389;67;1238;-20
2023/03/25 16:52:49;;;;;;;;;;;;;;;;;;2207988;67;1605;-20
2023/03/25 16:55:27;;;;;;;;;;;;;;;;;;2219445;58;1933;-20
2023/03/25 16:58:17;;;;;;;;;;;;;;;;;;2207760;67;1214;-21
2023/03/25 17:00:48;;;;;;;;;;;;;;;;;;2208929;66;1219;-21
2023/03/25 17:03:37;;;;;;;;;;;;;;;;;;2220684;66;1752;-20
2023/03/25 17:06:21;;;;;;;;;;;;;;;;;;2208328;67;1865;-20
2023/03/25 17:08:53;;;;;;;;;;;;;;;;;;2218556;66;1813;-20
2023/03/25 17:11:25;;;;;;;;;;;;;;;;;;2208329;67;1172;-20
2023/03/25 17:14:04;;;;;;;;;;;;;;;;;;2206690;67;1308;-21
2023/03/25 17:16:35;;;;;;;;;;;;;;;;;;2206920;67;1948;-20
2023/03/25 17:19:06;;;;;;;;;;;;;;;;;;2207156;67;2045;-20
2023/03/25 17:21:56;;;;;;;;;;;;;;;;;;2207500;67;1337;-20
2023/03/25 17:24:26;;;;;;;;;;;;;;;;;;2207591;67;1315;-20
2023/03/25 17:27:16;;;;;;;;;;;;;;;;;;2218975;66;1278;-20
2023/03/25 17:29:52;;;;;;;;;;;;;;;;;;2207275;66;2380;-20
2023/03/25 17:32:22;;;;;;;;;;;;;;;;;;2219596;66;1331;-21
2023/03/25 17:35:16;;;;;;;;;;;;;;;;;;2207794;67;1931;-20
2023/03/25 17:37:47;;;;;;;;;;;;;;;;;;2208341;66;1440;-21
2023/03/25 17:40:20;;;;;;;;;;;;;;;;;;2208110;67;1226;-21
2023/03/25 17:42:51;;;;;;;;;;;;;;;;;;2209071;67;1631;-21
2023/03/25 17:45:22;;;;;;;;;;;;;;;;;;2208763;67;1214;-20
2023/03/25 17:47:52;;;;;;;;;;;;;;;;;;2208298;59;1052;-20
2023/03/25 17:50:26;;;;;;;;;;;;;;;;;;2208309;67;1688;-20